sensor_id;sensor_type;location;lat;lon;timestamp;temperature;humidity
22923;DHT22;11627;51.322;22.816;2023-12-20T00:02:10;5.30;1.00
22923;DHT22;11627;51.322;22.816;2023-12-20T00:04:37;5.20;1.00
22923;DHT22;11627;51.322;22.816;2023-12-20T00:07:04;5.30;1.00
22923;DHT22;11627;51.322;22.816;2023-12-20T00:09:31;5.20;1.00
22923;DHT22;11627;51.322;22.816;2023-12-20T00:14:25;4.40;1.00
22923;DHT22;11627;51.322;22.816;2023-12-20T00:19:19;5.00;1.00
22923;DHT22;11627;51.322;22.816;2023-12-20T00:21:47;5.00;1.00
22923;DHT22;11627;51.322;22.816;2023-12-20T00:24:14;4.90;1.00
22923;DHT22;11627;51.322;22.816;2023-12-20T00:26:41;5.20;1.00
22923;DHT22;11627;51.322;22.816;2023-12-20T00:29:08;4.90;1.00
22923;DHT22;11627;51.322;22.816;2023-12-20T00:31:35;4.90;1.00
22923;DHT22;11627;51.322;22.816;2023-12-20T00:34:02;4.70;1.00
22923;DHT22;11627;51.322;22.816;2023-12-20T00:36:29;4.90;1.00
22923;DHT22;11627;51.322;22.816;2023-12-20T00:38:57;4.80;1.00
22923;DHT22;11627;51.322;22.816;2023-12-20T00:41:25;4.80;1.00
22923;DHT22;11627;51.322;22.816;2023-12-20T00:43:52;4.90;5.10
22923;DHT22;11627;51.322;22.816;2023-12-20T00:46:19;4.90;6.00
22923;DHT22;11627;51.322;22.816;2023-12-20T00:48:46;4.80;1.00
22923;DHT22;11627;51.322;22.816;2023-12-20T00:51:12;4.50;7.90
22923;DHT22;11627;51.322;22.816;2023-12-20T00:53:39;4.70;1.00
22923;DHT22;11627;51.322;22.816;2023-12-20T00:56:06;4.80;1.00
22923;DHT22;11627;51.322;22.816;2023-12-20T00:58:35;5.10;1.00
22923;DHT22;11627;51.322;22.816;2023-12-20T01:01:02;4.70;13.80
22923;DHT22;11627;51.322;22.816;2023-12-20T01:03:29;4.50;30.80
22923;DHT22;11627;51.322;22.816;2023-12-20T01:08:23;2.90;7.20
22923;DHT22;11627;51.322;22.816;2023-12-20T01:10:50;4.60;47.00
22923;DHT22;11627;51.322;22.816;2023-12-20T01:15:44;4.50;30.30
22923;DHT22;11627;51.322;22.816;2023-12-20T01:18:12;4.20;44.90
22923;DHT22;11627;51.322;22.816;2023-12-20T01:20:38;4.50;44.00
22923;DHT22;11627;51.322;22.816;2023-12-20T01:25:32;5.00;69.80
22923;DHT22;11627;51.322;22.816;2023-12-20T01:27:58;4.60;93.90
22923;DHT22;11627;51.322;22.816;2023-12-20T01:30:25;4.40;70.70
22923;DHT22;11627;51.322;22.816;2023-12-20T01:35:21;4.50;99.90
22923;DHT22;11627;51.322;22.816;2023-12-20T01:37:48;4.30;89.60
22923;DHT22;11627;51.322;22.816;2023-12-20T01:40:14;4.40;99.80
22923;DHT22;11627;51.322;22.816;2023-12-20T01:42:41;4.30;94.20
22923;DHT22;11627;51.322;22.816;2023-12-20T01:45:09;4.10;99.90
22923;DHT22;11627;51.322;22.816;2023-12-20T01:47:36;4.30;99.40
22923;DHT22;11627;51.322;22.816;2023-12-20T01:50:05;4.20;99.90
22923;DHT22;11627;51.322;22.816;2023-12-20T01:52:35;4.50;99.90
22923;DHT22;11627;51.322;22.816;2023-12-20T01:55:02;4.20;99.90
22923;DHT22;11627;51.322;22.816;2023-12-20T01:57:37;4.10;99.90
22923;DHT22;11627;51.322;22.816;2023-12-20T02:00:05;4.20;99.90
22923;DHT22;11627;51.322;22.816;2023-12-20T02:02:33;4.20;99.90
22923;DHT22;11627;51.322;22.816;2023-12-20T02:05:00;4.30;99.90
22923;DHT22;11627;51.322;22.816;2023-12-20T02:07:29;4.10;99.90
22923;DHT22;11627;51.322;22.816;2023-12-20T02:09:57;4.10;99.90
22923;DHT22;11627;51.322;22.816;2023-12-20T02:12:24;4.00;99.90
22923;DHT22;11627;51.322;22.816;2023-12-20T02:14:51;4.20;99.90
22923;DHT22;11627;51.322;22.816;2023-12-20T02:17:19;4.20;99.90
22923;DHT22;11627;51.322;22.816;2023-12-20T02:19:46;4.20;99.90
22923;DHT22;11627;51.322;22.816;2023-12-20T02:22:13;4.10;99.90
22923;DHT22;11627;51.322;22.816;2023-12-20T02:24:41;4.00;99.90
22923;DHT22;11627;51.322;22.816;2023-12-20T02:27:08;4.00;99.90
22923;DHT22;11627;51.322;22.816;2023-12-20T02:29:36;4.30;99.90
22923;DHT22;11627;51.322;22.816;2023-12-20T02:32:02;4.10;99.90
22923;DHT22;11627;51.322;22.816;2023-12-20T02:36:57;4.10;99.90
22923;DHT22;11627;51.322;22.816;2023-12-20T02:39:23;4.10;99.90
22923;DHT22;11627;51.322;22.816;2023-12-20T02:41:50;4.00;99.90
22923;DHT22;11627;51.322;22.816;2023-12-20T02:44:18;4.10;99.90
22923;DHT22;11627;51.322;22.816;2023-12-20T02:46:44;4.10;99.90
22923;DHT22;11627;51.322;22.816;2023-12-20T02:49:11;4.10;99.90
22923;DHT22;11627;51.322;22.816;2023-12-20T02:51:38;4.10;99.90
22923;DHT22;11627;51.322;22.816;2023-12-20T02:54:05;3.90;99.90
22923;DHT22;11627;51.322;22.816;2023-12-20T02:59:03;4.70;99.90
22923;DHT22;11627;51.322;22.816;2023-12-20T03:01:32;4.10;99.90
22923;DHT22;11627;51.322;22.816;2023-12-20T03:03:59;4.10;99.90
22923;DHT22;11627;51.322;22.816;2023-12-20T03:06:27;4.20;99.90
22923;DHT22;11627;51.322;22.816;2023-12-20T03:08:54;4.10;99.90
22923;DHT22;11627;51.322;22.816;2023-12-20T03:13:48;4.30;99.90
22923;DHT22;11627;51.322;22.816;2023-12-20T03:16:15;4.10;99.90
22923;DHT22;11627;51.322;22.816;2023-12-20T03:18:43;4.20;99.90
22923;DHT22;11627;51.322;22.816;2023-12-20T03:21:11;4.30;99.90
22923;DHT22;11627;51.322;22.816;2023-12-20T03:23:38;4.10;99.90
22923;DHT22;11627;51.322;22.816;2023-12-20T03:26:08;4.20;99.90
22923;DHT22;11627;51.322;22.816;2023-12-20T03:28:38;4.10;99.90
22923;DHT22;11627;51.322;22.816;2023-12-20T03:31:05;4.10;99.90
22923;DHT22;11627;51.322;22.816;2023-12-20T03:33:32;3.90;99.90
22923;DHT22;11627;51.322;22.816;2023-12-20T03:35:59;4.00;99.90
22923;DHT22;11627;51.322;22.816;2023-12-20T03:38:26;4.20;99.90
22923;DHT22;11627;51.322;22.816;2023-12-20T03:40:53;4.80;99.90
22923;DHT22;11627;51.322;22.816;2023-12-20T03:43:20;4.50;99.90
22923;DHT22;11627;51.322;22.816;2023-12-20T03:48:14;4.10;99.90
22923;DHT22;11627;51.322;22.816;2023-12-20T03:50:41;4.10;99.90
22923;DHT22;11627;51.322;22.816;2023-12-20T03:53:08;4.10;99.90
22923;DHT22;11627;51.322;22.816;2023-12-20T03:58:02;4.10;99.90
22923;DHT22;11627;51.322;22.816;2023-12-20T04:00:29;4.40;99.90
22923;DHT22;11627;51.322;22.816;2023-12-20T04:02:56;4.10;99.90
22923;DHT22;11627;51.322;22.816;2023-12-20T04:07:49;4.10;99.90
22923;DHT22;11627;51.322;22.816;2023-12-20T04:10:16;3.90;99.90
22923;DHT22;11627;51.322;22.816;2023-12-20T04:12:43;4.00;99.90
22923;DHT22;11627;51.322;22.816;2023-12-20T04:15:10;4.10;99.90
22923;DHT22;11627;51.322;22.816;2023-12-20T04:17:38;4.30;99.90
22923;DHT22;11627;51.322;22.816;2023-12-20T04:20:05;4.10;99.90
22923;DHT22;11627;51.322;22.816;2023-12-20T04:22:33;4.30;99.90
22923;DHT22;11627;51.322;22.816;2023-12-20T04:24:59;4.10;99.90
22923;DHT22;11627;51.322;22.816;2023-12-20T04:27:26;4.40;99.90
22923;DHT22;11627;51.322;22.816;2023-12-20T04:29:53;4.10;99.90
22923;DHT22;11627;51.322;22.816;2023-12-20T04:34:48;3.90;99.90
22923;DHT22;11627;51.322;22.816;2023-12-20T04:37:15;4.30;99.90
22923;DHT22;11627;51.322;22.816;2023-12-20T04:39:42;3.80;99.90
22923;DHT22;11627;51.322;22.816;2023-12-20T04:42:09;4.00;99.90
22923;DHT22;11627;51.322;22.816;2023-12-20T04:44:36;4.00;99.90
22923;DHT22;11627;51.322;22.816;2023-12-20T04:47:03;3.90;99.90
22923;DHT22;11627;51.322;22.816;2023-12-20T04:49:30;4.20;99.90
22923;DHT22;11627;51.322;22.816;2023-12-20T04:51:57;3.90;99.90
22923;DHT22;11627;51.322;22.816;2023-12-20T04:54:23;3.70;99.90
22923;DHT22;11627;51.322;22.816;2023-12-20T04:56:50;3.80;99.90
22923;DHT22;11627;51.322;22.816;2023-12-20T05:01:43;3.80;99.90
22923;DHT22;11627;51.322;22.816;2023-12-20T05:04:10;3.80;99.90
22923;DHT22;11627;51.322;22.816;2023-12-20T05:06:37;3.70;99.90
22923;DHT22;11627;51.322;22.816;2023-12-20T05:09:04;3.90;99.90
22923;DHT22;11627;51.322;22.816;2023-12-20T05:13:59;3.50;99.90
22923;DHT22;11627;51.322;22.816;2023-12-20T05:16:25;3.70;99.90
22923;DHT22;11627;51.322;22.816;2023-12-20T05:21:20;3.80;99.90
22923;DHT22;11627;51.322;22.816;2023-12-20T05:23:47;2.10;99.90
22923;DHT22;11627;51.322;22.816;2023-12-20T05:26:14;4.00;99.90
22923;DHT22;11627;51.322;22.816;2023-12-20T05:28:41;3.80;99.90
22923;DHT22;11627;51.322;22.816;2023-12-20T05:31:08;3.70;99.90
22923;DHT22;11627;51.322;22.816;2023-12-20T05:33:35;2.50;99.90
22923;DHT22;11627;51.322;22.816;2023-12-20T05:36:02;3.70;99.90
22923;DHT22;11627;51.322;22.816;2023-12-20T05:38:30;3.70;99.90
22923;DHT22;11627;51.322;22.816;2023-12-20T05:40:57;3.70;99.90
22923;DHT22;11627;51.322;22.816;2023-12-20T05:45:51;3.80;99.90
22923;DHT22;11627;51.322;22.816;2023-12-20T05:48:18;3.90;99.90
22923;DHT22;11627;51.322;22.816;2023-12-20T05:50:45;3.80;99.90
22923;DHT22;11627;51.322;22.816;2023-12-20T05:53:12;3.50;99.90
22923;DHT22;11627;51.322;22.816;2023-12-20T05:55:39;3.70;99.90
22923;DHT22;11627;51.322;22.816;2023-12-20T05:58:06;4.00;99.90
22923;DHT22;11627;51.322;22.816;2023-12-20T06:03:00;3.80;99.90
22923;DHT22;11627;51.322;22.816;2023-12-20T06:05:29;3.80;99.90
22923;DHT22;11627;51.322;22.816;2023-12-20T06:08:02;3.70;99.90
22923;DHT22;11627;51.322;22.816;2023-12-20T06:10:29;4.00;99.90
22923;DHT22;11627;51.322;22.816;2023-12-20T06:12:56;3.80;99.90
22923;DHT22;11627;51.322;22.816;2023-12-20T06:15:23;3.80;99.90
22923;DHT22;11627;51.322;22.816;2023-12-20T06:20:16;4.10;99.90
22923;DHT22;11627;51.322;22.816;2023-12-20T06:22:43;3.90;99.90
22923;DHT22;11627;51.322;22.816;2023-12-20T06:25:09;3.90;99.90
22923;DHT22;11627;51.322;22.816;2023-12-20T06:27:36;3.80;99.90
22923;DHT22;11627;51.322;22.816;2023-12-20T06:30:04;4.00;99.90
22923;DHT22;11627;51.322;22.816;2023-12-20T06:32:31;3.80;99.90
22923;DHT22;11627;51.322;22.816;2023-12-20T06:34:58;3.90;99.90
22923;DHT22;11627;51.322;22.816;2023-12-20T06:39:52;3.80;99.90
22923;DHT22;11627;51.322;22.816;2023-12-20T06:42:19;3.90;99.90
22923;DHT22;11627;51.322;22.816;2023-12-20T06:44:46;4.10;99.90
22923;DHT22;11627;51.322;22.816;2023-12-20T06:47:13;3.90;99.90
22923;DHT22;11627;51.322;22.816;2023-12-20T06:49:41;3.90;99.90
22923;DHT22;11627;51.322;22.816;2023-12-20T06:52:08;4.10;99.90
22923;DHT22;11627;51.322;22.816;2023-12-20T06:54:35;4.20;99.90
22923;DHT22;11627;51.322;22.816;2023-12-20T06:57:02;3.70;99.90
22923;DHT22;11627;51.322;22.816;2023-12-20T06:59:30;4.10;99.90
22923;DHT22;11627;51.322;22.816;2023-12-20T07:01:57;4.00;99.90
22923;DHT22;11627;51.322;22.816;2023-12-20T07:04:24;4.00;99.90
22923;DHT22;11627;51.322;22.816;2023-12-20T07:06:51;4.00;99.90
22923;DHT22;11627;51.322;22.816;2023-12-20T07:09:20;4.30;99.90
22923;DHT22;11627;51.322;22.816;2023-12-20T07:14:14;3.90;99.90
22923;DHT22;11627;51.322;22.816;2023-12-20T07:16:39;4.00;99.90
22923;DHT22;11627;51.322;22.816;2023-12-20T07:19:06;4.10;99.90
22923;DHT22;11627;51.322;22.816;2023-12-20T07:23:58;3.80;99.90
22923;DHT22;11627;51.322;22.816;2023-12-20T07:26:23;3.90;99.90
22923;DHT22;11627;51.322;22.816;2023-12-20T07:28:50;4.10;99.90
22923;DHT22;11627;51.322;22.816;2023-12-20T07:33:43;3.90;99.90
22923;DHT22;11627;51.322;22.816;2023-12-20T07:36:09;4.20;99.90
22923;DHT22;11627;51.322;22.816;2023-12-20T07:38:36;4.10;99.90
22923;DHT22;11627;51.322;22.816;2023-12-20T07:43:30;4.00;99.90
22923;DHT22;11627;51.322;22.816;2023-12-20T07:45:57;4.00;99.90
22923;DHT22;11627;51.322;22.816;2023-12-20T07:48:23;4.00;99.90
22923;DHT22;11627;51.322;22.816;2023-12-20T07:50:51;3.90;99.90
22923;DHT22;11627;51.322;22.816;2023-12-20T07:53:19;4.00;99.90
22923;DHT22;11627;51.322;22.816;2023-12-20T07:55:48;3.90;99.90
22923;DHT22;11627;51.322;22.816;2023-12-20T08:03:11;4.10;99.90
22923;DHT22;11627;51.322;22.816;2023-12-20T08:05:38;3.90;99.90
22923;DHT22;11627;51.322;22.816;2023-12-20T08:10:35;4.00;99.90
22923;DHT22;11627;51.322;22.816;2023-12-20T08:13:02;4.20;99.90
22923;DHT22;11627;51.322;22.816;2023-12-20T08:15:29;4.10;99.90
22923;DHT22;11627;51.322;22.816;2023-12-20T08:17:56;4.20;99.90
22923;DHT22;11627;51.322;22.816;2023-12-20T08:20:24;4.00;99.90
22923;DHT22;11627;51.322;22.816;2023-12-20T08:22:51;4.00;99.90
22923;DHT22;11627;51.322;22.816;2023-12-20T08:25:17;3.70;99.90
22923;DHT22;11627;51.322;22.816;2023-12-20T08:27:44;4.20;99.90
22923;DHT22;11627;51.322;22.816;2023-12-20T08:32:38;3.90;99.90
22923;DHT22;11627;51.322;22.816;2023-12-20T08:35:05;3.80;99.90
22923;DHT22;11627;51.322;22.816;2023-12-20T08:37:32;4.10;99.90
22923;DHT22;11627;51.322;22.816;2023-12-20T08:42:27;4.20;99.90
22923;DHT22;11627;51.322;22.816;2023-12-20T08:44:58;4.00;99.90
22923;DHT22;11627;51.322;22.816;2023-12-20T08:47:25;3.90;99.90
22923;DHT22;11627;51.322;22.816;2023-12-20T08:49:52;4.20;99.90
22923;DHT22;11627;51.322;22.816;2023-12-20T08:52:23;4.20;99.90
22923;DHT22;11627;51.322;22.816;2023-12-20T09:02:23;4.10;99.90
22923;DHT22;11627;51.322;22.816;2023-12-20T09:04:50;3.90;99.90
22923;DHT22;11627;51.322;22.816;2023-12-20T09:07:26;3.90;99.90
22923;DHT22;11627;51.322;22.816;2023-12-20T09:09:54;3.90;99.90
22923;DHT22;11627;51.322;22.816;2023-12-20T09:12:22;3.90;99.90
22923;DHT22;11627;51.322;22.816;2023-12-20T09:14:49;4.10;99.90
22923;DHT22;11627;51.322;22.816;2023-12-20T09:17:18;4.10;99.90
22923;DHT22;11627;51.322;22.816;2023-12-20T09:19:45;4.00;99.90
22923;DHT22;11627;51.322;22.816;2023-12-20T09:22:13;3.80;99.90
22923;DHT22;11627;51.322;22.816;2023-12-20T09:24:40;4.00;99.90
22923;DHT22;11627;51.322;22.816;2023-12-20T09:29:34;3.90;99.90
22923;DHT22;11627;51.322;22.816;2023-12-20T09:32:01;4.00;99.90
22923;DHT22;11627;51.322;22.816;2023-12-20T09:34:29;4.20;99.90
22923;DHT22;11627;51.322;22.816;2023-12-20T09:36:56;3.90;99.90
22923;DHT22;11627;51.322;22.816;2023-12-20T09:39:23;3.90;99.90
22923;DHT22;11627;51.322;22.816;2023-12-20T09:42:04;4.00;99.90
22923;DHT22;11627;51.322;22.816;2023-12-20T09:44:32;3.80;99.90
22923;DHT22;11627;51.322;22.816;2023-12-20T09:47:05;4.10;99.90
22923;DHT22;11627;51.322;22.816;2023-12-20T09:49:33;4.00;99.90
22923;DHT22;11627;51.322;22.816;2023-12-20T09:52:01;4.00;99.90
22923;DHT22;11627;51.322;22.816;2023-12-20T09:54:29;4.00;99.90
22923;DHT22;11627;51.322;22.816;2023-12-20T09:56:57;4.00;99.90
22923;DHT22;11627;51.322;22.816;2023-12-20T09:59:24;4.00;99.90
22923;DHT22;11627;51.322;22.816;2023-12-20T10:01:53;4.10;99.90
22923;DHT22;11627;51.322;22.816;2023-12-20T10:04:22;4.00;99.90
22923;DHT22;11627;51.322;22.816;2023-12-20T10:09:17;3.90;99.90
22923;DHT22;11627;51.322;22.816;2023-12-20T10:11:44;4.00;99.90
22923;DHT22;11627;51.322;22.816;2023-12-20T10:14:11;4.00;99.90
22923;DHT22;11627;51.322;22.816;2023-12-20T10:16:38;4.10;99.90
22923;DHT22;11627;51.322;22.816;2023-12-20T10:19:05;4.10;99.90
22923;DHT22;11627;51.322;22.816;2023-12-20T10:21:32;4.10;99.90
22923;DHT22;11627;51.322;22.816;2023-12-20T10:24:00;2.50;99.90
22923;DHT22;11627;51.322;22.816;2023-12-20T10:26:27;4.00;99.90
22923;DHT22;11627;51.322;22.816;2023-12-20T10:29:00;3.70;99.90
22923;DHT22;11627;51.322;22.816;2023-12-20T10:31:35;3.90;99.90
22923;DHT22;11627;51.322;22.816;2023-12-20T10:34:03;4.20;99.90
22923;DHT22;11627;51.322;22.816;2023-12-20T10:36:33;4.10;99.90
22923;DHT22;11627;51.322;22.816;2023-12-20T10:39:04;4.50;99.90
22923;DHT22;11627;51.322;22.816;2023-12-20T10:41:33;3.70;99.90
22923;DHT22;11627;51.322;22.816;2023-12-20T10:44:03;4.20;99.90
22923;DHT22;11627;51.322;22.816;2023-12-20T10:46:33;4.10;99.90
22923;DHT22;11627;51.322;22.816;2023-12-20T10:49:05;4.10;99.90
22923;DHT22;11627;51.322;22.816;2023-12-20T10:51:35;4.00;99.90
22923;DHT22;11627;51.322;22.816;2023-12-20T10:54:04;4.10;99.90
22923;DHT22;11627;51.322;22.816;2023-12-20T10:56:32;4.20;99.90
22923;DHT22;11627;51.322;22.816;2023-12-20T10:59:04;4.50;99.90
22923;DHT22;11627;51.322;22.816;2023-12-20T11:01:35;4.20;99.90
22923;DHT22;11627;51.322;22.816;2023-12-20T11:04:03;4.30;99.90
22923;DHT22;11627;51.322;22.816;2023-12-20T11:07:06;4.30;99.90
22923;DHT22;11627;51.322;22.816;2023-12-20T11:09:42;4.10;99.90
22923;DHT22;11627;51.322;22.816;2023-12-20T11:12:20;4.30;99.90
22923;DHT22;11627;51.322;22.816;2023-12-20T11:14:53;4.20;99.90
22923;DHT22;11627;51.322;22.816;2023-12-20T11:17:24;4.20;99.90
22923;DHT22;11627;51.322;22.816;2023-12-20T11:22:25;4.20;99.90
22923;DHT22;11627;51.322;22.816;2023-12-20T11:24:53;4.10;99.90
22923;DHT22;11627;51.322;22.816;2023-12-20T11:27:20;4.00;99.90
22923;DHT22;11627;51.322;22.816;2023-12-20T11:29:56;3.10;99.90
22923;DHT22;11627;51.322;22.816;2023-12-20T11:32:41;4.00;99.90
22923;DHT22;11627;51.322;22.816;2023-12-20T11:40:28;4.40;99.90
22923;DHT22;11627;51.322;22.816;2023-12-20T11:42:55;4.50;99.90
22923;DHT22;11627;51.322;22.816;2023-12-20T11:45:24;4.30;99.90
22923;DHT22;11627;51.322;22.816;2023-12-20T11:47:51;4.50;99.90
22923;DHT22;11627;51.322;22.816;2023-12-20T11:50:22;4.30;99.90
22923;DHT22;11627;51.322;22.816;2023-12-20T11:52:51;4.40;99.90
22923;DHT22;11627;51.322;22.816;2023-12-20T11:55:18;4.30;99.90
22923;DHT22;11627;51.322;22.816;2023-12-20T11:57:45;4.50;99.90
22923;DHT22;11627;51.322;22.816;2023-12-20T12:02:38;4.60;99.90
22923;DHT22;11627;51.322;22.816;2023-12-20T12:05:06;4.60;99.90
22923;DHT22;11627;51.322;22.816;2023-12-20T12:07:34;5.10;99.90
22923;DHT22;11627;51.322;22.816;2023-12-20T12:10:01;4.50;99.90
22923;DHT22;11627;51.322;22.816;2023-12-20T12:12:30;4.60;99.90
22923;DHT22;11627;51.322;22.816;2023-12-20T12:14:57;4.50;99.90
22923;DHT22;11627;51.322;22.816;2023-12-20T12:17:24;4.50;99.90
22923;DHT22;11627;51.322;22.816;2023-12-20T12:20:05;4.60;99.90
22923;DHT22;11627;51.322;22.816;2023-12-20T12:22:32;4.70;99.90
22923;DHT22;11627;51.322;22.816;2023-12-20T12:24:59;4.50;99.90
22923;DHT22;11627;51.322;22.816;2023-12-20T12:27:35;4.50;99.90
22923;DHT22;11627;51.322;22.816;2023-12-20T12:30:04;4.40;99.90
22923;DHT22;11627;51.322;22.816;2023-12-20T12:32:33;4.40;99.90
22923;DHT22;11627;51.322;22.816;2023-12-20T12:35:03;4.40;99.90
22923;DHT22;11627;51.322;22.816;2023-12-20T12:37:29;4.40;99.90
22923;DHT22;11627;51.322;22.816;2023-12-20T12:44:55;4.30;99.90
22923;DHT22;11627;51.322;22.816;2023-12-20T12:47:23;4.30;99.90
22923;DHT22;11627;51.322;22.816;2023-12-20T12:49:51;4.30;99.90
22923;DHT22;11627;51.322;22.816;2023-12-20T12:52:20;4.30;99.90
22923;DHT22;11627;51.322;22.816;2023-12-20T12:54:46;4.30;99.90
22923;DHT22;11627;51.322;22.816;2023-12-20T12:57:14;4.10;99.90
22923;DHT22;11627;51.322;22.816;2023-12-20T12:59:42;4.20;99.90
22923;DHT22;11627;51.322;22.816;2023-12-20T13:02:13;4.10;99.90
22923;DHT22;11627;51.322;22.816;2023-12-20T13:04:43;4.40;99.90
22923;DHT22;11627;51.322;22.816;2023-12-20T13:07:10;4.10;99.90
22923;DHT22;11627;51.322;22.816;2023-12-20T13:09:39;4.20;99.90
22923;DHT22;11627;51.322;22.816;2023-12-20T13:12:08;4.10;99.90
22923;DHT22;11627;51.322;22.816;2023-12-20T13:14:35;4.00;99.90
22923;DHT22;11627;51.322;22.816;2023-12-20T13:17:09;4.60;99.90
22923;DHT22;11627;51.322;22.816;2023-12-20T13:19:39;4.00;99.90
22923;DHT22;11627;51.322;22.816;2023-12-20T13:22:06;4.00;99.90
22923;DHT22;11627;51.322;22.816;2023-12-20T13:24:34;4.00;99.90
22923;DHT22;11627;51.322;22.816;2023-12-20T13:27:01;3.90;99.90
22923;DHT22;11627;51.322;22.816;2023-12-20T13:29:28;3.70;99.90
22923;DHT22;11627;51.322;22.816;2023-12-20T13:31:55;4.10;99.90
22923;DHT22;11627;51.322;22.816;2023-12-20T13:34:23;4.10;99.90
22923;DHT22;11627;51.322;22.816;2023-12-20T13:36:50;3.70;99.90
22923;DHT22;11627;51.322;22.816;2023-12-20T13:39:18;3.90;99.90
22923;DHT22;11627;51.322;22.816;2023-12-20T13:44:11;3.80;99.90
22923;DHT22;11627;51.322;22.816;2023-12-20T13:46:40;3.80;99.90
22923;DHT22;11627;51.322;22.816;2023-12-20T13:49:07;6.50;99.90
22923;DHT22;11627;51.322;22.816;2023-12-20T13:51:34;3.90;99.90
22923;DHT22;11627;51.322;22.816;2023-12-20T13:54:01;3.80;99.90
22923;DHT22;11627;51.322;22.816;2023-12-20T13:56:28;3.90;99.90
22923;DHT22;11627;51.322;22.816;2023-12-20T13:58:56;3.90;99.90
22923;DHT22;11627;51.322;22.816;2023-12-20T14:01:23;3.70;99.90
22923;DHT22;11627;51.322;22.816;2023-12-20T14:03:52;3.90;99.90
22923;DHT22;11627;51.322;22.816;2023-12-20T14:06:19;3.60;99.90
22923;DHT22;11627;51.322;22.816;2023-12-20T14:11:14;3.80;99.90
22923;DHT22;11627;51.322;22.816;2023-12-20T14:13:42;3.80;99.90
22923;DHT22;11627;51.322;22.816;2023-12-20T14:16:10;3.70;99.90
22923;DHT22;11627;51.322;22.816;2023-12-20T14:18:37;3.70;99.90
22923;DHT22;11627;51.322;22.816;2023-12-20T14:21:04;3.60;99.90
22923;DHT22;11627;51.322;22.816;2023-12-20T14:23:33;3.50;99.90
22923;DHT22;11627;51.322;22.816;2023-12-20T14:26:00;3.60;99.90
22923;DHT22;11627;51.322;22.816;2023-12-20T14:28:28;3.50;99.90
22923;DHT22;11627;51.322;22.816;2023-12-20T14:30:55;3.70;99.90
22923;DHT22;11627;51.322;22.816;2023-12-20T14:33:21;3.60;99.90
22923;DHT22;11627;51.322;22.816;2023-12-20T14:35:47;3.60;99.90
22923;DHT22;11627;51.322;22.816;2023-12-20T14:43:06;3.60;99.90
22923;DHT22;11627;51.322;22.816;2023-12-20T14:50:24;3.50;99.90
22923;DHT22;11627;51.322;22.816;2023-12-20T15:00:11;3.40;99.90
22923;DHT22;11627;51.322;22.816;2023-12-20T15:05:07;3.70;99.90
22923;DHT22;11627;51.322;22.816;2023-12-20T15:12:25;3.80;99.90
22923;DHT22;11627;51.322;22.816;2023-12-20T15:17:17;3.70;99.90
22923;DHT22;11627;51.322;22.816;2023-12-20T15:22:09;3.70;99.90
22923;DHT22;11627;51.322;22.816;2023-12-20T15:24:37;3.50;99.90
22923;DHT22;11627;51.322;22.816;2023-12-20T15:29:33;3.40;99.90
22923;DHT22;11627;51.322;22.816;2023-12-20T15:31:59;3.60;99.90
22923;DHT22;11627;51.322;22.816;2023-12-20T15:36:51;3.60;99.90
22923;DHT22;11627;51.322;22.816;2023-12-20T15:41:43;3.50;99.90
22923;DHT22;11627;51.322;22.816;2023-12-20T15:49:01;3.60;99.90
22923;DHT22;11627;51.322;22.816;2023-12-20T15:53:53;3.60;99.90
22923;DHT22;11627;51.322;22.816;2023-12-20T15:56:19;3.90;99.90
22923;DHT22;11627;51.322;22.816;2023-12-20T15:58:45;3.60;99.90
22923;DHT22;11627;51.322;22.816;2023-12-20T16:01:13;3.70;99.90
22923;DHT22;11627;51.322;22.816;2023-12-20T16:03:39;3.50;99.90
22923;DHT22;11627;51.322;22.816;2023-12-20T16:08:31;3.40;99.90
22923;DHT22;11627;51.322;22.816;2023-12-20T16:13:23;3.40;99.90
22923;DHT22;11627;51.322;22.816;2023-12-20T16:20:41;3.50;99.90
22923;DHT22;11627;51.322;22.816;2023-12-20T16:28:04;3.70;99.90
22923;DHT22;11627;51.322;22.816;2023-12-20T16:37:48;3.90;99.90
22923;DHT22;11627;51.322;22.816;2023-12-20T16:40:15;3.80;99.90
22923;DHT22;11627;51.322;22.816;2023-12-20T16:45:07;3.80;99.90
22923;DHT22;11627;51.322;22.816;2023-12-20T16:49:59;3.90;99.90
22923;DHT22;11627;51.322;22.816;2023-12-20T16:57:19;3.80;99.90
22923;DHT22;11627;51.322;22.816;2023-12-20T17:04:38;3.90;99.90
22923;DHT22;11627;51.322;22.816;2023-12-20T17:38:45;3.30;99.90
22923;DHT22;11627;51.322;22.816;2023-12-20T17:43:37;3.50;99.90
22923;DHT22;11627;51.322;22.816;2023-12-20T17:48:28;3.70;99.90
22923;DHT22;11627;51.322;22.816;2023-12-20T17:55:46;3.90;99.90
22923;DHT22;11627;51.322;22.816;2023-12-20T17:58:13;3.70;99.90
22923;DHT22;11627;51.322;22.816;2023-12-20T18:00:39;3.80;99.90
22923;DHT22;11627;51.322;22.816;2023-12-20T18:05:31;3.60;99.90
22923;DHT22;11627;51.322;22.816;2023-12-20T18:17:41;3.70;99.90
22923;DHT22;11627;51.322;22.816;2023-12-20T18:20:08;3.40;99.90
22923;DHT22;11627;51.322;22.816;2023-12-20T18:29:52;3.50;99.90
22923;DHT22;11627;51.322;22.816;2023-12-20T18:34:45;3.60;99.90
22923;DHT22;11627;51.322;22.816;2023-12-20T18:37:11;3.50;99.90
22923;DHT22;11627;51.322;22.816;2023-12-20T18:42:05;3.50;99.90
22923;DHT22;11627;51.322;22.816;2023-12-20T18:46:57;3.60;99.90
22923;DHT22;11627;51.322;22.816;2023-12-20T18:51:49;3.70;99.90
22923;DHT22;11627;51.322;22.816;2023-12-20T19:01:36;3.70;99.90
22923;DHT22;11627;51.322;22.816;2023-12-20T19:04:03;3.60;99.90
22923;DHT22;11627;51.322;22.816;2023-12-20T19:06:30;3.50;99.90
22923;DHT22;11627;51.322;22.816;2023-12-20T19:08:57;3.60;99.90
22923;DHT22;11627;51.322;22.816;2023-12-20T19:11:24;3.70;99.90
22923;DHT22;11627;51.322;22.816;2023-12-20T19:16:16;3.30;99.90
22923;DHT22;11627;51.322;22.816;2023-12-20T19:18:43;3.80;99.90
22923;DHT22;11627;51.322;22.816;2023-12-20T19:23:36;3.50;99.90
22923;DHT22;11627;51.322;22.816;2023-12-20T19:26:03;3.90;99.90
22923;DHT22;11627;51.322;22.816;2023-12-20T19:30:57;3.50;99.90
22923;DHT22;11627;51.322;22.816;2023-12-20T19:33:27;3.70;99.90
22923;DHT22;11627;51.322;22.816;2023-12-20T19:35:54;3.70;99.90
22923;DHT22;11627;51.322;22.816;2023-12-20T19:43:16;3.70;99.90
22923;DHT22;11627;51.322;22.816;2023-12-20T19:53:03;3.60;99.90
22923;DHT22;11627;51.322;22.816;2023-12-20T19:55:30;3.40;99.90
22923;DHT22;11627;51.322;22.816;2023-12-20T19:57:57;3.90;99.90
22923;DHT22;11627;51.322;22.816;2023-12-20T20:00:24;3.30;99.90
22923;DHT22;11627;51.322;22.816;2023-12-20T20:02:52;3.40;99.90
22923;DHT22;11627;51.322;22.816;2023-12-20T20:05:17;3.70;99.90
22923;DHT22;11627;51.322;22.816;2023-12-20T20:07:44;3.80;99.90
22923;DHT22;11627;51.322;22.816;2023-12-20T20:12:38;3.60;99.90
22923;DHT22;11627;51.322;22.816;2023-12-20T20:15:04;3.50;99.90
22923;DHT22;11627;51.322;22.816;2023-12-20T20:17:30;3.40;99.90
22923;DHT22;11627;51.322;22.816;2023-12-20T20:22:25;3.60;99.90